Skip Navigation Links Skip Navigation Links

Current Weather

Carroll County Regional/Jack B Poage Field, Westminster, Md.

For information only: do not use for flight planning or navigation.
Latest weather
Observation time Sunday, August 1, 2021 5:35 AM EDT
Local time Sunday, August 1, 2021 7:46 AM EDT
Flight conditions Visual Meteorological Conditions
Winds
Wind speed calm
Visibility 10 mi.
Sky condition
Ceiling 8,000 ft. broken clouds
Cloud layer broken clouds 8,000 ft.
Cloud layer broken clouds 11,000 ft.
Temperature 70°F
Dewpoint 66°F
Altimeter 29.91 in.Hg
Derived measurements
Relative humidity 88%
Density altitude 1801 ft.
Remarks
Fully automated report.
Automated weather observing station with precipitation discriminator.
METAR KDMW 010935Z AUTO 00000KT 10SM BKN080 BKN110 21/19 A2991 RMK AO2

Settings

Location code

InnerDrive.Weather 4.0.6770.0 Release CLR 4.0.30319.42000
Copyright ©2018 Inner Drive Technology. All rights reserved. Portions Copyright ©1986-2018 David Braverman.

Find weather

Site navigation


Skip Navigation Links

Place info

Page info

PayPal - The safer, easier way to pay online!

Return home.

Copyright ©2021 Inner Drive Technology. Purveyors of fine, hand-crafted computer software. Page printed 2021-08-01T11:46:04 UTC.